Time;durP1;ratioP1;P1;durP2;ratioP2;P2;SDS_P1;SDS_P2;PMS_P1;PMS_P2;Temp;Humidity;BMP_temperature;BMP_pressure;BME280_temperature;BME280_humidity;BME280_pressure;Samples;Min_cycle;Max_cycle;Signal;HPM_P1;HPM_P2
2022/12/06 00:00:09;;;;;;;4.53;3.78;;;15.90;49.40;;;;;;5075552;28;45268;-74
2022/12/06 00:02:36;;;;;;;5.28;3.83;;;15.90;49.40;;;;;;5075923;28;45270;-75
2022/12/06 00:05:04;;;;;;;4.50;3.72;;;15.90;49.30;;;;;;5074441;28;45777;-75
2022/12/06 00:07:31;;;;;;;6.07;3.80;;;16.00;49.30;;;;;;5076282;28;45366;-75
2022/12/06 00:10:00;;;;;;;5.03;3.63;;;16.00;49.20;;;;;;5076941;28;45699;-75
2022/12/06 00:12:27;;;;;;;4.30;3.50;;;16.00;49.10;;;;;;5074476;28;45317;-74
2022/12/06 00:14:54;;;;;;;4.82;3.60;;;16.00;49.20;;;;;;5075607;28;47111;-75
2022/12/06 00:17:21;;;;;;;5.70;4.07;;;16.00;49.10;;;;;;5074683;28;45203;-75
2022/12/06 00:19:48;;;;;;;7.20;4.07;;;16.00;49.00;;;;;;5074808;28;45221;-75
2022/12/06 00:22:15;;;;;;;4.00;3.60;;;16.00;49.10;;;;;;5077724;28;45310;-75
2022/12/06 00:24:42;;;;;;;4.93;3.50;;;16.00;49.10;;;;;;5086141;28;46911;-74
2022/12/06 00:27:10;;;;;;;4.65;3.63;;;16.00;49.10;;;;;;5086361;28;45192;-75
2022/12/06 00:29:37;;;;;;;4.63;3.95;;;16.00;49.20;;;;;;5085726;28;45254;-75
2022/12/06 00:32:05;;;;;;;5.68;4.40;;;16.00;49.10;;;;;;5086521;28;45362;-74
2022/12/06 00:34:32;;;;;;;6.32;4.57;;;16.00;48.80;;;;;;5085609;28;46962;-74
2022/12/06 00:36:59;;;;;;;5.00;3.78;;;15.90;48.70;;;;;;5086206;28;45244;-75
2022/12/06 00:39:26;;;;;;;5.70;4.05;;;15.90;48.90;;;;;;5086236;28;45186;-77
2022/12/06 00:41:55;;;;;;;5.07;3.65;;;15.90;49.00;;;;;;5086209;28;45183;-77
2022/12/06 00:44:23;;;;;;;5.97;4.40;;;15.80;49.00;;;;;;5088247;28;45319;-77
2022/12/06 00:46:50;;;;;;;4.82;3.72;;;15.80;49.00;;;;;;5094161;27;45184;-78
2022/12/06 00:49:17;;;;;;;4.78;3.83;;;15.80;49.10;;;;;;5089895;28;45339;-77
2022/12/06 00:51:44;;;;;;;4.40;3.67;;;15.80;49.10;;;;;;5089344;28;45543;-77
2022/12/06 00:54:13;;;;;;;5.50;4.10;;;15.70;49.10;;;;;;5089379;28;45682;-77
2022/12/06 00:56:40;;;;;;;5.63;4.22;;;15.70;49.10;;;;;;5089378;28;45262;-78
2022/12/06 00:59:07;;;;;;;6.82;3.35;;;15.70;49.20;;;;;;5089662;28;45170;-77
2022/12/06 01:01:35;;;;;;;3.78;3.42;;;15.70;49.20;;;;;;5089617;28;45619;-78
2022/12/06 01:04:04;;;;;;;4.32;3.50;;;15.60;49.20;;;;;;5089206;28;45332;-78
2022/12/06 01:06:31;;;;;;;4.82;3.42;;;15.60;49.20;;;;;;5089591;28;45190;-77
2022/12/06 01:09:00;;;;;;;4.15;3.33;;;15.60;49.20;;;;;;5089769;28;45191;-78
2022/12/06 01:11:27;;;;;;;5.78;3.50;;;15.60;49.20;;;;;;5089820;28;45320;-77
2022/12/06 01:13:54;;;;;;;3.95;3.53;;;15.60;49.30;;;;;;5088451;28;46358;-76
2022/12/06 01:16:23;;;;;;;4.55;3.63;;;15.60;49.20;;;;;;5088281;28;45190;-77
2022/12/06 01:18:53;;;;;;;4.45;3.25;;;15.60;49.20;;;;;;5089415;28;45386;-77
2022/12/06 01:21:20;;;;;;;3.67;2.88;;;15.50;49.20;;;;;;5089340;28;45116;-77
2022/12/06 01:23:47;;;;;;;4.32;3.30;;;15.50;49.20;;;;;;5088935;28;46951;-77
2022/12/06 01:26:15;;;;;;;4.10;3.05;;;15.50;49.20;;;;;;5088896;28;45305;-77
2022/12/06 01:28:42;;;;;;;3.97;3.15;;;15.50;49.30;;;;;;5089162;28;45323;-78
2022/12/06 01:31:09;;;;;;;4.45;3.05;;;15.50;49.30;;;;;;5089276;28;45463;-77
2022/12/06 01:33:36;;;;;;;4.75;3.28;;;15.40;49.30;;;;;;5088783;28;45474;-77
2022/12/06 01:36:05;;;;;;;3.85;3.05;;;15.50;49.30;;;;;;5088915;28;45190;-77
2022/12/06 01:38:32;;;;;;;4.22;3.28;;;15.40;49.30;;;;;;5089050;28;45369;-78
2022/12/06 01:40:59;;;;;;;3.13;2.83;;;15.40;49.30;;;;;;5089117;28;45293;-77
2022/12/06 01:43:30;;;;;;;3.97;2.65;;;15.40;49.40;;;;;;5088397;28;45716;-77
2022/12/06 01:45:58;;;;;;;3.20;2.88;;;15.40;49.40;;;;;;5089466;27;45374;-78
2022/12/06 01:48:25;;;;;;;4.82;3.28;;;15.30;49.40;;;;;;5092162;27;45184;-77
2022/12/06 01:50:52;;;;;;;3.55;2.63;;;15.30;49.40;;;;;;5088694;28;45462;-77
2022/12/06 01:53:21;;;;;;;3.83;3.10;;;15.40;49.40;;;;;;5088164;28;46440;-77
2022/12/06 01:55:48;;;;;;;3.63;2.80;;;15.40;49.30;;;;;;5088180;27;45335;-77
2022/12/06 01:58:17;;;;;;;4.03;2.78;;;15.40;49.30;;;;;;5088532;28;45180;-77
2022/12/06 02:00:44;;;;;;;3.20;2.58;;;15.40;49.20;;;;;;5088679;28;45268;-77
2022/12/06 02:03:14;;;;;;;4.03;2.80;;;15.50;49.10;;;;;;5087439;28;46662;-77
2022/12/06 02:05:41;;;;;;;3.33;2.50;;;15.50;48.90;;;;;;5088113;28;45254;-77
2022/12/06 02:08:08;;;;;;;3.38;2.80;;;15.60;48.90;;;;;;5088633;28;45185;-77
2022/12/06 02:10:36;;;;;;;3.80;2.90;;;15.60;48.90;;;;;;5088509;28;45284;-78
2022/12/06 02:13:03;;;;;;;2.88;2.17;;;15.70;48.70;;;;;;5088108;28;45737;-78
2022/12/06 02:15:34;;;;;;;3.10;2.45;;;15.70;48.70;;;;;;5088378;28;45345;-78
2022/12/06 02:18:03;;;;;;;2.15;1.95;;;15.70;48.60;;;;;;5088461;28;45280;-78
2022/12/06 02:20:31;;;;;;;2.20;2.00;;;15.80;48.70;;;;;;5088681;28;45562;-77
2022/12/06 02:23:33;;;;;;;3.13;2.15;;;15.80;48.60;;;;;;5088011;28;47131;-77
2022/12/06 02:26:18;;;;;;;2.67;2.20;;;15.80;48.60;;;;;;5088382;28;45300;-78
2022/12/06 02:29:03;;;;;;;3.42;2.30;;;15.80;48.60;;;;;;5088212;28;45277;-78
2022/12/06 02:31:33;;;;;;;2.42;2.20;;;15.80;48.60;;;;;;5088669;28;45332;-77
2022/12/06 02:34:02;;;;;;;2.80;2.45;;;15.80;48.60;;;;;;5088180;28;45663;-78
2022/12/06 02:36:30;;;;;;;3.42;2.60;;;15.80;48.60;;;;;;5087707;28;45253;-77
2022/12/06 02:38:59;;;;;;;2.50;2.30;;;15.70;48.50;;;;;;5088025;28;45281;-77
2022/12/06 02:41:29;;;;;;;2.40;2.15;;;15.70;48.60;;;;;;5088084;28;45439;-78
2022/12/06 02:43:58;;;;;;;2.58;2.20;;;15.80;48.70;;;;;;5087631;28;45467;-78
2022/12/06 02:46:28;;;;;;;3.58;2.67;;;15.70;48.60;;;;;;5092105;27;45557;-78
2022/12/06 02:48:58;;;;;;;3.58;2.00;;;15.70;48.70;;;;;;5087840;28;45125;-77
2022/12/06 02:51:25;;;;;;;2.97;2.42;;;15.70;48.70;;;;;;5087852;28;45323;-78
2022/12/06 02:53:53;;;;;;;3.25;2.28;;;15.70;48.70;;;;;;5087378;28;45341;-77
2022/12/06 02:56:21;;;;;;;3.50;2.10;;;15.70;48.80;;;;;;5087630;28;45236;-78
2022/12/06 02:58:48;;;;;;;3.47;2.20;;;15.60;48.70;;;;;;5087785;28;45237;-78
2022/12/06 03:01:15;;;;;;;3.42;2.33;;;15.60;48.80;;;;;;5087844;28;45422;-78
2022/12/06 03:03:58;;;;;;;2.20;2.00;;;15.60;48.80;;;;;;5087443;28;45533;-78
2022/12/06 03:06:45;;;;;;;2.55;2.30;;;15.60;48.90;;;;;;5073034;27;45294;-77
2022/12/06 03:09:24;;;;;;;2.47;2.08;;;15.50;48.90;;;;;;5076885;28;45270;-77
2022/12/06 03:11:55;;;;;;;2.30;1.85;;;15.50;48.90;;;;;;5087472;28;45624;-78
2022/12/06 03:14:23;;;;;;;2.95;2.00;;;15.50;49.00;;;;;;5087268;28;46843;-77
2022/12/06 03:16:51;;;;;;;2.42;1.88;;;15.50;49.00;;;;;;5087124;28;45202;-77
2022/12/06 03:19:24;;;;;;;3.13;2.20;;;15.50;49.60;;;;;;5087170;28;45195;-77
2022/12/06 03:21:54;;;;;;;2.70;2.17;;;15.40;49.70;;;;;;5087682;28;45204;-78
2022/12/06 03:24:21;;;;;;;2.20;1.90;;;15.40;49.10;;;;;;5087030;28;45368;-77
2022/12/06 03:26:48;;;;;;;2.47;1.98;;;15.40;49.20;;;;;;5087196;28;45340;-78
2022/12/06 03:29:16;;;;;;;2.67;2.17;;;15.40;49.20;;;;;;5087381;28;45295;-77
2022/12/06 03:31:43;;;;;;;2.40;1.98;;;15.40;49.20;;;;;;5087328;28;45400;-77
2022/12/06 03:34:12;;;;;;;2.95;2.03;;;15.30;49.20;;;;;;5085906;28;45367;-77
2022/12/06 03:36:39;;;;;;;2.17;1.90;;;15.30;49.20;;;;;;5087124;28;45331;-77
2022/12/06 03:39:07;;;;;;;2.53;2.17;;;15.40;49.30;;;;;;5086940;28;45264;-77
2022/12/06 03:41:37;;;;;;;2.15;1.95;;;15.30;49.20;;;;;;5087286;28;45188;-78
2022/12/06 03:44:04;;;;;;;2.55;2.03;;;15.30;49.30;;;;;;5087035;28;45308;-77
2022/12/06 03:46:32;;;;;;;1.83;1.55;;;15.30;49.30;;;;;;5091235;27;45202;-78
2022/12/06 03:49:01;;;;;;;2.60;2.00;;;15.20;49.30;;;;;;5086843;28;45210;-77
2022/12/06 03:51:29;;;;;;;2.35;1.92;;;15.20;49.40;;;;;;5086740;28;45487;-77
2022/12/06 03:53:58;;;;;;;2.40;2.20;;;15.20;49.40;;;;;;5086610;28;45618;-77
2022/12/06 03:56:27;;;;;;;2.10;1.90;;;15.30;49.40;;;;;;5086572;28;45313;-77
2022/12/06 03:58:54;;;;;;;1.70;1.60;;;15.30;49.30;;;;;;5087063;28;45374;-78
2022/12/06 04:01:21;;;;;;;1.73;1.52;;;15.40;49.20;;;;;;5086859;28;45547;-77
2022/12/06 04:03:48;;;;;;;2.38;1.73;;;15.50;49.10;;;;;;5086446;28;45417;-78
2022/12/06 04:06:15;;;;;;;2.00;1.80;;;15.50;49.00;;;;;;5086544;28;45282;-78
2022/12/06 04:08:43;;;;;;;2.83;2.10;;;15.50;48.80;;;;;;5087131;28;45434;-78
2022/12/06 04:11:10;;;;;;;2.20;1.77;;;15.60;48.90;;;;;;5086962;28;45206;-77
2022/12/06 04:13:39;;;;;;;2.10;1.88;;;15.60;48.80;;;;;;5088369;28;45612;-77
2022/12/06 04:18:09;;;;;;;2.47;1.80;;;15.60;48.70;;;;;;5086533;28;45254;-77
2022/12/06 04:18:54;;;;;;;1.90;1.70;;;15.70;48.70;;;;;;5088105;27;45376;-77
2022/12/06 04:24:06;;;;;;;2.10;1.90;;;15.70;48.60;;;;;;5090444;28;45254;-77
2022/12/06 04:26:33;;;;;;;2.33;2.00;;;15.70;48.60;;;;;;5089893;28;45299;-78
2022/12/06 04:39:58;;;;;;;2.58;1.70;;;15.70;48.60;;;;;;5087221;28;45208;-77
2022/12/06 04:45:11;;;;;;;1.98;1.75;;;15.70;48.60;;;;;;5086990;28;45261;-77
2022/12/06 04:47:38;;;;;;;2.05;1.85;;;15.70;48.60;;;;;;5093925;27;45383;-78
2022/12/06 04:50:06;;;;;;;3.85;2.25;;;15.70;49.20;;;;;;5089938;28;45296;-77
2022/12/06 04:52:33;;;;;;;2.92;1.80;;;15.70;48.60;;;;;;5089588;28;45265;-77
2022/12/06 04:55:00;;;;;;;2.75;2.17;;;15.70;48.60;;;;;;5089365;28;46619;-77
2022/12/06 04:57:27;;;;;;;2.88;2.08;;;15.70;48.60;;;;;;5088705;28;45341;-77
2022/12/06 04:59:54;;;;;;;2.88;1.95;;;15.60;48.70;;;;;;5089677;28;45233;-77
2022/12/06 05:02:23;;;;;;;2.25;2.05;;;15.60;48.70;;;;;;5089766;28;45258;-77
2022/12/06 05:04:49;;;;;;;2.50;2.30;;;15.60;48.70;;;;;;5089120;28;46679;-77
2022/12/06 05:07:16;;;;;;;3.35;2.45;;;15.60;48.80;;;;;;5089114;28;45375;-77
2022/12/06 05:09:43;;;;;;;3.17;2.38;;;15.60;48.80;;;;;;5089590;28;45315;-77
2022/12/06 05:12:10;;;;;;;3.65;2.35;;;15.60;48.90;;;;;;5089729;28;45398;-77
2022/12/06 05:14:37;;;;;;;3.10;2.13;;;15.50;48.80;;;;;;5088914;28;45463;-77
2022/12/06 05:17:04;;;;;;;3.08;2.35;;;15.50;48.90;;;;;;5089310;28;45312;-77
2022/12/06 05:19:32;;;;;;;3.05;2.15;;;15.50;48.90;;;;;;5088959;28;45300;-77
2022/12/06 05:21:59;;;;;;;3.53;2.20;;;15.50;48.90;;;;;;5089420;28;45369;-77
2022/12/06 05:24:26;;;;;;;3.47;2.17;;;15.50;49.00;;;;;;5088852;28;46508;-77
2022/12/06 05:26:53;;;;;;;4.10;2.33;;;15.40;49.00;;;;;;5088999;28;45258;-77
2022/12/06 05:29:20;;;;;;;3.72;2.17;;;15.40;49.10;;;;;;5088781;27;45360;-77
2022/12/06 05:31:47;;;;;;;2.85;2.30;;;15.40;49.10;;;;;;5088896;28;45327;-77
2022/12/06 05:34:14;;;;;;;3.30;2.45;;;15.40;49.20;;;;;;5088860;28;46939;-77
2022/12/06 05:36:44;;;;;;;3.08;2.28;;;15.40;49.20;;;;;;5088801;28;45259;-77
2022/12/06 05:39:11;;;;;;;3.30;2.25;;;15.30;49.20;;;;;;5088850;28;45294;-77
2022/12/06 05:41:38;;;;;;;3.10;2.47;;;15.30;49.80;;;;;;5088407;28;45363;-76
2022/12/06 05:44:05;;;;;;;4.07;2.42;;;15.30;49.30;;;;;;5088515;28;45432;-77
2022/12/06 05:46:32;;;;;;;3.85;2.33;;;15.30;49.30;;;;;;5093031;27;45278;-77
2022/12/06 05:48:59;;;;;;;3.05;2.20;;;15.30;49.30;;;;;;5088934;28;45311;-77
2022/12/06 05:51:26;;;;;;;3.80;2.42;;;15.30;49.40;;;;;;5088265;28;45369;-77
2022/12/06 05:53:54;;;;;;;2.40;2.20;;;15.30;49.40;;;;;;5088342;28;45517;-77
2022/12/06 05:56:21;;;;;;;3.10;2.30;;;15.30;50.00;;;;;;5088416;28;45202;-78
2022/12/06 05:58:48;;;;;;;3.00;2.58;;;15.30;49.40;;;;;;5088947;28;45196;-77
2022/12/06 06:01:15;;;;;;;3.92;2.00;;;15.20;49.40;;;;;;5088677;28;45444;-77
2022/12/06 06:03:41;;;;;;;3.15;2.38;;;15.20;49.50;;;;;;5088603;28;45420;-77
2022/12/06 06:06:09;;;;;;;2.22;2.00;;;15.20;49.60;;;;;;5088017;28;45296;-77
2022/12/06 06:08:36;;;;;;;4.00;2.28;;;15.20;49.60;;;;;;5088446;28;45289;-77
2022/12/06 06:11:04;;;;;;;3.58;2.67;;;15.30;49.50;;;;;;5088505;28;45178;-78
2022/12/06 06:13:31;;;;;;;4.35;2.67;;;15.30;49.40;;;;;;5088115;28;47026;-78
2022/12/06 06:15:58;;;;;;;2.55;2.35;;;15.40;49.30;;;;;;5088160;28;45351;-77
2022/12/06 06:18:25;;;;;;;2.55;1.92;;;15.40;49.20;;;;;;5088193;28;45430;-77
2022/12/06 06:20:52;;;;;;;3.58;2.47;;;15.50;49.10;;;;;;5088451;28;45158;-78
2022/12/06 06:23:19;;;;;;;2.50;2.20;;;15.50;49.00;;;;;;5087801;28;46660;-76
2022/12/06 06:25:46;;;;;;;2.63;2.35;;;15.60;49.00;;;;;;5087372;28;45289;-77
2022/12/06 06:28:14;;;;;;;2.50;1.90;;;15.60;48.90;;;;;;5088075;28;45340;-77
2022/12/06 06:30:41;;;;;;;3.45;2.42;;;15.60;48.90;;;;;;5088414;28;45116;-77
2022/12/06 06:33:08;;;;;;;3.58;2.50;;;15.70;48.80;;;;;;5087753;28;46383;-78
2022/12/06 06:35:35;;;;;;;2.72;2.38;;;15.70;48.80;;;;;;5087799;28;45205;-78
2022/12/06 06:38:02;;;;;;;4.07;2.80;;;15.70;48.80;;;;;;5087818;28;45381;-78
2022/12/06 06:40:29;;;;;;;4.88;3.00;;;15.70;48.70;;;;;;5087347;27;45311;-77
2022/12/06 06:42:56;;;;;;;4.40;2.42;;;15.70;48.70;;;;;;5087261;28;45336;-78
2022/12/06 06:45:24;;;;;;;5.38;2.65;;;15.70;48.70;;;;;;5087771;28;45305;-77
2022/12/06 06:47:51;;;;;;;3.05;2.70;;;15.70;48.70;;;;;;5092011;27;45356;-77
2022/12/06 06:50:18;;;;;;;3.53;2.70;;;15.70;49.40;;;;;;5088079;28;45356;-78
2022/12/06 06:52:45;;;;;;;4.18;3.05;;;15.70;48.70;;;;;;5087372;28;45415;-77
2022/12/06 06:55:12;;;;;;;3.10;2.80;;;15.70;49.30;;;;;;5087487;28;45189;-77
2022/12/06 06:57:40;;;;;;;3.25;2.92;;;15.70;48.70;;;;;;5087756;28;45197;-77
2022/12/06 07:00:08;;;;;;;4.05;3.03;;;15.70;48.80;;;;;;5087718;28;45322;-77
2022/12/06 07:02:38;;;;;;;4.00;2.97;;;15.70;48.80;;;;;;5087477;28;46642;-77
2022/12/06 07:05:05;;;;;;;4.45;3.03;;;15.60;48.80;;;;;;5087352;28;45146;-77
2022/12/06 07:07:33;;;;;;;4.05;3.17;;;15.60;48.80;;;;;;5087603;28;45260;-76
2022/12/06 07:09:59;;;;;;;4.15;3.10;;;15.60;48.80;;;;;;5086793;28;45409;-77
2022/12/06 07:12:26;;;;;;;4.93;3.42;;;15.60;48.90;;;;;;5087057;28;45673;-77
2022/12/06 07:14:53;;;;;;;4.25;3.10;;;15.60;48.90;;;;;;5087293;28;45123;-78
2022/12/06 07:17:20;;;;;;;4.68;3.15;;;15.60;48.90;;;;;;5087402;28;45291;-77
2022/12/06 07:19:49;;;;;;;3.75;3.03;;;15.60;49.00;;;;;;5087363;28;45434;-77
2022/12/06 07:22:16;;;;;;;5.88;3.75;;;15.50;49.00;;;;;;5087075;28;46662;-77
2022/12/06 07:24:43;;;;;;;3.25;2.70;;;15.50;49.00;;;;;;5086847;28;45240;-77
2022/12/06 07:27:10;;;;;;;3.45;2.80;;;15.50;49.10;;;;;;5087119;28;45182;-77
2022/12/06 07:29:38;;;;;;;4.00;2.88;;;15.50;49.10;;;;;;5087468;28;45261;-77
2022/12/06 07:32:05;;;;;;;3.85;2.90;;;15.50;49.10;;;;;;5086532;28;46500;-78
2022/12/06 07:34:32;;;;;;;4.50;3.10;;;15.50;49.20;;;;;;5087493;28;45265;-77
2022/12/06 07:37:01;;;;;;;4.00;2.78;;;15.50;49.20;;;;;;5086989;28;45194;-77
2022/12/06 07:39:28;;;;;;;3.58;3.00;;;15.40;49.80;;;;;;5087286;28;45384;-77
2022/12/06 07:47:23;;;;;;;4.10;3.22;;;15.40;49.30;;;;;;5088753;27;45292;-77
2022/12/06 07:49:52;;;;;;;3.00;2.70;;;15.40;49.30;;;;;;5087067;28;45241;-77
2022/12/06 07:52:20;;;;;;;4.57;3.38;;;15.30;49.30;;;;;;5086108;28;45364;-77
2022/12/06 07:54:47;;;;;;;3.58;2.85;;;15.30;49.40;;;;;;5086759;28;45435;-77
2022/12/06 07:57:14;;;;;;;2.88;2.45;;;15.30;49.40;;;;;;5086850;28;45407;-77
2022/12/06 07:59:41;;;;;;;4.00;3.10;;;15.30;49.40;;;;;;5086995;28;45299;-77
2022/12/06 08:02:13;;;;;;;4.43;3.05;;;15.30;49.50;;;;;;5086015;28;45542;-77
2022/12/06 08:04:40;;;;;;;3.65;2.88;;;15.30;49.50;;;;;;5082737;28;46299;-78
2022/12/06 08:07:07;;;;;;;4.20;2.78;;;15.30;49.60;;;;;;5083948;28;45248;-77
2022/12/06 08:09:35;;;;;;;2.72;2.40;;;15.30;49.60;;;;;;5076637;28;45375;-78
2022/12/06 08:12:02;;;;;;;3.15;2.72;;;15.30;49.60;;;;;;5080232;28;46703;-78
2022/12/06 08:14:29;;;;;;;2.97;2.72;;;15.30;49.60;;;;;;5072846;28;45392;-77
2022/12/06 08:16:56;;;;;;;3.33;2.50;;;15.30;49.60;;;;;;5083186;28;45406;-77
2022/12/06 08:19:24;;;;;;;2.95;2.50;;;15.20;49.60;;;;;;5070564;28;45178;-77
2022/12/06 08:21:50;;;;;;;3.83;2.50;;;15.20;49.70;;;;;;5078067;28;46754;-77
2022/12/06 08:24:17;;;;;;;4.28;2.70;;;15.20;49.70;;;;;;5077448;28;45305;-77
2022/12/06 08:26:46;;;;;;;3.72;2.70;;;15.30;49.70;;;;;;5070632;28;45270;-77
2022/12/06 08:29:13;;;;;;;3.40;2.53;;;15.30;49.50;;;;;;5066021;28;45402;-77
2022/12/06 08:31:40;;;;;;;2.88;2.60;;;15.40;49.40;;;;;;5072216;28;45431;-77
2022/12/06 08:34:07;;;;;;;3.45;2.60;;;15.50;49.30;;;;;;5075436;28;45322;-78
2022/12/06 08:36:34;;;;;;;3.28;2.67;;;15.50;49.20;;;;;;5065721;28;45411;-78
2022/12/06 08:39:00;;;;;;;3.42;2.65;;;15.60;49.10;;;;;;5082779;28;45420;-77
2022/12/06 08:44:14;;;;;;;3.80;2.67;;;15.70;49.00;;;;;;5073988;28;45422;-77
2022/12/06 08:46:40;;;;;;;3.08;2.78;;;15.70;48.90;;;;;;5082091;27;45325;-77
2022/12/06 08:49:07;;;;;;;3.00;2.78;;;15.80;48.90;;;;;;5067102;28;45295;-77
2022/12/06 08:51:35;;;;;;;2.90;2.47;;;15.80;48.80;;;;;;5070662;28;46668;-77
2022/12/06 08:54:02;;;;;;;3.63;2.47;;;15.80;48.80;;;;;;5082573;28;45502;-77
2022/12/06 08:56:29;;;;;;;3.30;2.70;;;15.80;48.70;;;;;;5079012;28;45252;-77
2022/12/06 08:58:57;;;;;;;4.45;2.78;;;15.80;48.70;;;;;;5083961;28;45222;-77
2022/12/06 09:01:27;;;;;;;2.88;2.50;;;15.80;48.70;;;;;;5072638;28;45269;-77
2022/12/06 09:03:54;;;;;;;4.22;3.03;;;15.90;48.70;;;;;;5075389;27;45299;-77
2022/12/06 09:06:21;;;;;;;3.10;2.63;;;15.90;48.70;;;;;;5075365;27;45218;-77
2022/12/06 09:08:48;;;;;;;3.70;2.67;;;15.90;49.30;;;;;;5085587;28;45360;-77
2022/12/06 09:11:15;;;;;;;3.03;2.47;;;15.90;48.70;;;;;;5073035;28;45384;-77
2022/12/06 09:13:42;;;;;;;2.92;2.63;;;15.90;48.60;;;;;;5074749;28;45406;-77
2022/12/06 09:16:10;;;;;;;3.33;2.70;;;15.90;48.70;;;;;;5080598;28;45260;-77
2022/12/06 09:18:38;;;;;;;2.75;2.55;;;15.90;48.60;;;;;;5073149;28;45146;-77
2022/12/06 09:21:06;;;;;;;4.22;2.78;;;15.90;48.60;;;;;;5076009;28;45305;-77
2022/12/06 09:23:33;;;;;;;3.10;2.80;;;15.90;48.60;;;;;;5080665;28;45138;-77
2022/12/06 09:26:00;;;;;;;3.45;2.63;;;15.90;48.70;;;;;;5068800;28;45197;-77
2022/12/06 09:28:28;;;;;;;3.50;3.20;;;15.90;48.60;;;;;;5083303;28;45618;-76
2022/12/06 09:30:54;;;;;;;4.03;2.70;;;15.90;48.60;;;;;;5070476;28;47448;-76
2022/12/06 09:33:23;;;;;;;2.58;2.38;;;15.90;48.60;;;;;;5068503;28;45333;-77
2022/12/06 09:35:52;;;;;;;2.95;2.60;;;15.90;48.60;;;;;;5068725;28;45191;-76
2022/12/06 09:38:19;;;;;;;3.90;2.53;;;15.90;48.70;;;;;;5079078;28;45249;-77
2022/12/06 09:40:51;;;;;;;3.10;2.45;;;15.90;48.70;;;;;;5080949;28;45517;-77
2022/12/06 09:43:24;;;;;;;3.20;2.90;;;15.90;48.70;;;;;;5082189;28;45837;-77
2022/12/06 09:46:03;;;;;;;3.17;2.40;;;15.90;48.70;;;;;;5080316;28;45315;-76
2022/12/06 09:48:54;;;;;;;2.85;2.40;;;15.90;48.70;;;;;;5079112;27;45409;-77
2022/12/06 09:51:31;;;;;;;3.28;2.50;;;16.00;48.90;;;;;;5044422;28;45411;-76
2022/12/06 09:54:07;;;;;;;3.60;2.55;;;16.00;49.00;;;;;;5081956;28;45455;-77
2022/12/06 09:56:35;;;;;;;3.88;2.53;;;16.00;49.10;;;;;;5074035;28;45308;-76
2022/12/06 09:59:11;;;;;;;2.63;2.40;;;16.00;49.00;;;;;;5081981;28;45608;-75
2022/12/06 10:01:46;;;;;;;3.75;2.40;;;16.00;49.00;;;;;;5062709;28;45425;-77
2022/12/06 10:04:26;;;;;;;3.10;2.28;;;16.00;49.10;;;;;;5077580;28;45516;-77
2022/12/06 10:06:58;;;;;;;3.50;2.40;;;16.10;49.10;;;;;;5078047;28;45504;-77
2022/12/06 10:09:32;;;;;;;7.45;3.17;;;16.10;49.00;;;;;;5076024;28;45320;-75
2022/12/06 10:12:20;;;;;;;4.00;3.35;;;16.10;48.90;;;;;;5087063;28;46560;-78
2022/12/06 10:15:09;;;;;;;5.10;3.65;;;16.10;48.40;;;;;;5088174;28;45174;-77
2022/12/06 10:17:41;;;;;;;6.70;4.30;;;16.10;48.00;;;;;;5088463;28;45327;-77
2022/12/06 10:20:11;;;;;;;6.70;4.55;;;16.10;47.60;;;;;;5088892;28;45189;-77
2022/12/06 10:22:47;;;;;;;6.53;4.68;;;16.00;47.40;;;;;;5088096;28;46922;-77
2022/12/06 10:25:17;;;;;;;6.85;4.25;;;16.00;47.20;;;;;;5087960;28;45205;-78
2022/12/06 10:27:48;;;;;;;6.45;4.25;;;16.00;47.20;;;;;;5088000;28;45283;-76
2022/12/06 10:30:15;;;;;;;5.63;4.15;;;16.00;47.10;;;;;;5081485;28;45439;-76
2022/12/06 10:32:50;;;;;;;5.32;4.35;;;16.00;47.00;;;;;;5080328;28;45742;-78
2022/12/06 10:35:19;;;;;;;4.78;4.07;;;16.10;47.00;;;;;;5076641;28;45342;-77
2022/12/06 10:37:55;;;;;;;6.22;4.38;;;16.10;46.90;;;;;;5072647;28;45513;-77
2022/12/06 10:40:24;;;;;;;6.07;3.80;;;16.10;46.80;;;;;;5085869;28;45562;-77
2022/12/06 10:42:54;;;;;;;6.82;4.47;;;16.10;46.60;;;;;;5073227;28;45477;-76
2022/12/06 10:48:14;;;;;;;6.40;3.72;;;16.20;46.20;;;;;;5081808;27;45562;-77
2022/12/06 10:50:41;;;;;;;4.78;3.55;;;16.20;46.20;;;;;;5078094;28;45557;-77
2022/12/06 10:53:11;;;;;;;5.03;3.47;;;16.20;46.20;;;;;;5073468;28;45412;-77
2022/12/06 10:55:41;;;;;;;5.65;3.50;;;16.30;46.20;;;;;;5075480;28;45518;-77
2022/12/06 10:58:10;;;;;;;3.97;2.83;;;16.30;46.40;;;;;;5087921;28;45416;-77
2022/12/06 11:00:40;;;;;;;3.70;3.13;;;16.40;46.60;;;;;;5087693;28;45217;-77
2022/12/06 11:03:10;;;;;;;3.75;2.72;;;16.40;46.60;;;;;;5087328;28;45296;-77
2022/12/06 11:05:38;;;;;;;7.10;2.60;;;16.50;46.40;;;;;;5086286;28;45325;-77
2022/12/06 11:08:09;;;;;;;4.32;2.97;;;16.50;46.40;;;;;;5087593;28;45249;-77
2022/12/06 11:10:38;;;;;;;3.42;2.85;;;16.60;46.40;;;;;;5087918;28;45210;-77
2022/12/06 11:13:15;;;;;;;4.53;2.70;;;16.60;46.40;;;;;;5085784;28;46886;-77
2022/12/06 11:15:45;;;;;;;3.10;2.70;;;16.60;46.40;;;;;;5078849;28;45264;-77
2022/12/06 11:18:14;;;;;;;2.22;2.10;;;16.70;46.40;;;;;;5078701;28;45278;-77
2022/12/06 11:20:44;;;;;;;2.42;2.17;;;16.70;46.30;;;;;;5080853;28;45379;-77
2022/12/06 11:23:13;;;;;;;2.58;2.28;;;16.80;46.40;;;;;;5087123;28;45313;-77
2022/12/06 11:25:57;;;;;;;2.35;2.15;;;16.80;46.30;;;;;;5087013;28;45359;-77
2022/12/06 11:28:31;;;;;;;1.95;1.85;;;16.80;46.40;;;;;;5086380;28;45298;-77
2022/12/06 11:30:58;;;;;;;1.95;1.83;;;16.90;46.40;;;;;;5087290;28;45526;-77
2022/12/06 11:33:27;;;;;;;2.20;2.00;;;16.90;46.30;;;;;;5087111;28;45475;-77
2022/12/06 11:35:54;;;;;;;2.00;1.88;;;16.90;46.30;;;;;;5083978;28;45313;-77
2022/12/06 11:38:21;;;;;;;2.10;1.90;;;17.00;46.30;;;;;;5078804;28;45331;-78
2022/12/06 11:40:50;;;;;;;2.00;1.90;;;17.00;46.30;;;;;;5086299;28;45186;-77
2022/12/06 11:43:18;;;;;;;2.25;2.05;;;16.90;46.40;;;;;;5086725;28;45714;-77
2022/12/06 11:45:45;;;;;;;2.45;2.00;;;16.90;46.60;;;;;;5086687;28;45271;-77
2022/12/06 11:48:14;;;;;;;2.20;2.00;;;16.90;46.60;;;;;;5090671;27;45155;-78
2022/12/06 11:50:41;;;;;;;1.52;1.42;;;17.00;46.50;;;;;;5087355;28;45270;-77
2022/12/06 11:53:13;;;;;;;3.08;1.98;;;17.00;46.50;;;;;;5086176;28;45599;-77
2022/12/06 11:55:42;;;;;;;2.05;1.85;;;17.00;46.40;;;;;;5085398;27;45334;-77
2022/12/06 11:58:15;;;;;;;2.13;1.92;;;17.00;47.10;;;;;;5087009;28;45300;-77
2022/12/06 12:00:56;;;;;;;2.65;1.98;;;17.00;46.50;;;;;;5087322;28;45440;-76
2022/12/06 12:03:28;;;;;;;2.13;1.92;;;16.90;46.80;;;;;;5086564;28;45628;-76
2022/12/06 12:06:08;;;;;;;1.77;1.67;;;16.90;46.90;;;;;;5084612;28;45513;-77
2022/12/06 12:08:35;;;;;;;1.92;1.52;;;16.80;46.90;;;;;;5084335;28;45264;-76
2022/12/06 12:11:03;;;;;;;2.45;1.83;;;16.80;47.10;;;;;;5069873;28;45535;-75
2022/12/06 12:13:47;;;;;;;3.55;2.20;;;16.80;47.10;;;;;;5068806;28;45313;-75
2022/12/06 12:16:17;;;;;;;5.82;2.50;;;16.90;47.10;;;;;;5077805;28;45466;-75
2022/12/06 12:18:51;;;;;;;8.70;2.28;;;16.90;47.00;;;;;;5081147;28;45269;-74
2022/12/06 12:21:18;;;;;;;3.60;2.47;;;16.90;47.00;;;;;;5074982;28;45203;-74
2022/12/06 12:23:46;;;;;;;5.78;2.30;;;17.00;47.00;;;;;;5067365;28;45770;-75
2022/12/06 12:26:14;;;;;;;5.07;2.42;;;17.00;47.00;;;;;;5077025;28;45570;-76
2022/12/06 12:28:43;;;;;;;4.40;2.55;;;16.90;47.10;;;;;;5066212;28;45301;-75
2022/12/06 12:31:11;;;;;;;3.47;2.63;;;16.90;47.20;;;;;;5074888;28;45496;-75
2022/12/06 12:33:37;;;;;;;3.40;2.50;;;16.90;47.40;;;;;;5066455;28;46713;-74
2022/12/06 12:36:16;;;;;;;4.13;2.50;;;16.80;47.50;;;;;;5081318;28;45305;-76
2022/12/06 12:38:43;;;;;;;6.50;2.45;;;16.70;47.70;;;;;;5080140;27;45410;-75
2022/12/06 12:41:25;;;;;;;4.55;2.70;;;16.70;47.80;;;;;;5070093;28;45399;-75
2022/12/06 12:43:59;;;;;;;3.85;2.55;;;16.60;47.90;;;;;;5078975;28;46985;-75
2022/12/06 12:46:27;;;;;;;3.63;2.30;;;16.60;48.10;;;;;;5081756;27;45418;-75
2022/12/06 12:48:55;;;;;;;4.22;2.33;;;16.50;48.10;;;;;;5084249;27;45333;-76
2022/12/06 12:51:32;;;;;;;3.85;2.53;;;16.50;48.20;;;;;;5086337;28;45427;-75
2022/12/06 12:54:00;;;;;;;3.75;2.78;;;16.50;48.40;;;;;;5068909;28;45550;-75
2022/12/06 12:56:27;;;;;;;5.93;2.80;;;16.40;48.50;;;;;;5075982;28;45182;-76
2022/12/06 12:58:55;;;;;;;4.25;2.50;;;16.40;49.20;;;;;;5080049;28;45210;-76
2022/12/06 13:01:36;;;;;;;4.05;2.40;;;16.30;48.60;;;;;;5084793;28;45408;-76
2022/12/06 13:04:04;;;;;;;5.18;2.33;;;16.30;48.70;;;;;;5089303;28;45816;-75
2022/12/06 13:06:34;;;;;;;2.90;2.38;;;16.30;48.80;;;;;;5071937;28;45234;-76
2022/12/06 13:09:01;;;;;;;3.15;2.35;;;16.30;48.90;;;;;;5082340;28;45338;-75
2022/12/06 13:11:28;;;;;;;2.83;2.58;;;16.20;48.90;;;;;;5081616;28;45178;-74
2022/12/06 13:13:55;;;;;;;4.85;2.47;;;16.20;49.00;;;;;;5076066;28;47035;-76
2022/12/06 13:16:24;;;;;;;3.40;2.25;;;16.10;49.10;;;;;;5075539;28;45447;-75
2022/12/06 13:18:54;;;;;;;2.95;2.55;;;16.10;49.10;;;;;;5076547;28;45426;-77
2022/12/06 13:21:22;;;;;;;2.63;2.28;;;16.10;49.20;;;;;;5080726;28;45297;-76
2022/12/06 13:23:50;;;;;;;3.22;2.53;;;16.00;49.20;;;;;;5084001;28;47331;-75